^^
Datos históricos de la estación: Murcia-Puente Tocinos
Diario Informe para Agosto 10, 2019 Unidades:  Métrico    Ingés   Ambas
Diario Semanal Mensual Anual
  Máxima: Mínima: Promedio:
Temperatura: 27.7 °C 20.2 °C 24.4 °C
Punto de rocio: 18.7 °C -2 °C 9.6 °C
Humedad: 77% 14.2% 45%
Velocidad viento: 29.8km/h 0km/h 14km/h
Racha viento: 57.9km/h - -
Viento- - OSO
Presión: 1012.7 hPa 1007.0 hPa -
Precipitación: 0.0 mm    
 
 
Tabla de datos para Agosto 10, 2019
Hora Temperatura Punto de rocio Presión Viento Velocidad viento Racha viento Humedad Intensidad lluvia(por hora) Nubes
00:04 23.2 °C 17.6 °C 1011.7 hPa NNE 3.9 km/h 8 km/h 71% 0.0 mm
00:09 23.3 °C 17.7 °C 1011.6 hPa NNE 3.7 km/h 6.4 km/h 71% 0.0 mm
00:14 23.3 °C 17.7 °C 1011.6 hPa ENE 2.9 km/h 8 km/h 71% 0.0 mm
00:19 23.3 °C 17.8 °C 1011.6 hPa Este 3 km/h 7.6 km/h 71.1% 0.0 mm
00:24 23.2 °C 18.2 °C 1011.5 hPa ESE 3.9 km/h 8.4 km/h 73.2% 0.0 mm
00:29 23.1 °C 18.4 °C 1011.5 hPa ESE 4 km/h 8 km/h 74.6% 0.0 mm
00:34 23 °C 18.5 °C 1011.5 hPa ESE 4.7 km/h 8.4 km/h 75.4% 0.0 mm
00:39 23 °C 18.6 °C 1011.4 hPa ESE 4.4 km/h 8 km/h 76% 0.0 mm
00:44 23 °C 18.6 °C 1011.4 hPa ESE 3.2 km/h 7.6 km/h 76% 0.0 mm
00:49 23.1 °C 18.6 °C 1011.4 hPa ESE 3.2 km/h 8 km/h 76% 0.0 mm
00:54 23.1 °C 18.6 °C 1011.2 hPa ESE 2.9 km/h 4.7 km/h 76% 0.0 mm
00:59 23.2 °C 18.7 °C 1011.2 hPa ESE 2.8 km/h 4.8 km/h 76% 0.0 mm
01:04 23.2 °C 18.6 °C 1011.2 hPa ESE 2.2 km/h 3.7 km/h 75.5% 0.0 mm
01:09 23.2 °C 18.5 °C 1011.2 hPa ESE 1.9 km/h 3.2 km/h 75% 0.0 mm
01:14 23.2 °C 18.4 °C 1011.2 hPa Calm   4.7 km/h 74.6% 0.0 mm
01:19 23.2 °C 18.3 °C 1011.2 hPa Sur 0.3 km/h 5.8 km/h 73.8% 0.0 mm
01:24 23.2 °C 18.3 °C 1011.0 hPa Sur 2.2 km/h 6.4 km/h 73.7% 0.0 mm
01:29 23.3 °C 18.2 °C 1010.9 hPa Sur 2.2 km/h 5.6 km/h 73.3% 0.0 mm
01:34 23.3 °C 18.4 °C 1010.9 hPa Sur 2.2 km/h 4.8 km/h 74% 0.0 mm
01:39 23.3 °C 18.4 °C 1010.7 hPa Sur 2.2 km/h 4.8 km/h 74% 0.0 mm
01:44 23.3 °C 18.2 °C 1010.7 hPa Sur 2.2 km/h 3.9 km/h 73.3% 0.0 mm
01:49 23.2 °C 18.2 °C 1010.7 hPa Sur 1.9 km/h 6.9 km/h 73.6% 0.0 mm
01:54 23.2 °C 17.9 °C 1010.6 hPa Calm   8 km/h 72% 0.0 mm
01:59 23.2 °C 17.8 °C 1010.6 hPa OSO 0.6 km/h 8 km/h 71.8% 0.0 mm
02:04 23.1 °C 17.6 °C 1010.6 hPa OSO 3.2 km/h 9.3 km/h 71% 0.0 mm
02:09 23.1 °C 17.5 °C 1010.6 hPa OSO 3.2 km/h 9.7 km/h 71% 0.0 mm
02:14 23 °C 17.6 °C 1010.6 hPa SO 3.2 km/h 8 km/h 71.7% 0.0 mm
02:19 23 °C 17.9 °C 1010.6 hPa SO 3.2 km/h 6.4 km/h 73% 0.0 mm
02:24 22.9 °C 17.8 °C 1010.4 hPa SO 2.9 km/h 5.8 km/h 73% 0.0 mm
02:29 22.9 °C 17.8 °C 1010.3 hPa SO 2.9 km/h 6.4 km/h 73% 0.0 mm
02:34 22.8 °C 17.7 °C 1010.3 hPa OSO 2.9 km/h 7.6 km/h 73% 0.0 mm
02:39 22.8 °C 17.7 °C 1010.2 hPa OSO 2.9 km/h 8 km/h 73% 0.0 mm
02:44 22.7 °C 17.6 °C 1010.2 hPa OSO 2.9 km/h 8 km/h 73% 0.0 mm
02:49 22.7 °C 17.6 °C 1010.2 hPa OSO 2.8 km/h 8 km/h 73% 0.0 mm
02:54 22.6 °C 17.5 °C 1010.0 hPa OSO 2.2 km/h 7.4 km/h 73.1% 0.0 mm
02:59 22.6 °C 17.7 °C 1010.0 hPa OSO 2.4 km/h 8 km/h 74% 0.0 mm
03:04 22.4 °C 17.7 °C 1010.0 hPa SO 2.9 km/h 5.8 km/h 74.6% 0.0 mm
03:09 22.4 °C 17.7 °C 1009.9 hPa SSO 2.9 km/h 6.4 km/h 75% 0.0 mm
03:14 22.4 °C 17.7 °C 1009.8 hPa SSO 2.9 km/h 6.4 km/h 75% 0.0 mm
03:19 22.4 °C 17.7 °C 1009.8 hPa SSO 2.8 km/h 4.8 km/h 75% 0.0 mm
03:24 22.4 °C 17.9 °C 1009.7 hPa SSO 2.2 km/h 5.8 km/h 75.9% 0.0 mm
03:29 22.4 °C 17.9 °C 1009.7 hPa Sur 2.4 km/h 6.4 km/h 76% 0.0 mm
03:34 22.3 °C 17.9 °C 1009.7 hPa Sur 3.2 km/h 8.4 km/h 76% 0.0 mm
03:39 22.2 °C 17.8 °C 1009.5 hPa SSE 3.5 km/h 9.5 km/h 76% 0.0 mm
03:44 22.1 °C 17.7 °C 1009.5 hPa SSE 5 km/h 9.7 km/h 76% 0.0 mm
03:49 22 °C 17.6 °C 1009.5 hPa SSE 4.9 km/h 8 km/h 76% 0.0 mm
03:54 21.9 °C 17.5 °C 1009.4 hPa SE 4.7 km/h 9.5 km/h 76% 0.0 mm
03:59 21.7 °C 17.3 °C 1009.4 hPa SE 4.7 km/h 9.7 km/h 76% 0.0 mm
04:04 21.6 °C 17.1 °C 1009.4 hPa Sur 5 km/h 11.3 km/h 76% 0.0 mm
04:09 21.4 °C 17 °C 1009.3 hPa SSE 5.1 km/h 11.3 km/h 76% 0.0 mm
04:14 21.4 °C 16.9 °C 1009.3 hPa Sur 5.8 km/h 10 km/h 75.7% 0.0 mm
04:19 21.4 °C 16.8 °C 1009.3 hPa SSE 5.9 km/h 10 km/h 75% 0.0 mm
04:24 21.4 °C 16.8 °C 1009.0 hPa Sur 6.9 km/h 11.1 km/h 75% 0.0 mm
04:29 21.3 °C 16.7 °C 1009.0 hPa Sur 6.9 km/h 11.3 km/h 75% 0.0 mm
04:34 21.2 °C 16.6 °C 1009.0 hPa Sur 6.5 km/h 9.7 km/h 75% 0.0 mm
04:39 21.1 °C 16.5 °C 1008.8 hPa Sur 6.5 km/h 11.1 km/h 75% 0.0 mm
04:44 21 °C 16.5 °C 1008.8 hPa Sur 6.5 km/h 11.3 km/h 75.2% 0.0 mm
04:49 20.9 °C 16.5 °C 1008.8 hPa SSE 6.4 km/h 11.3 km/h 76% 0.0 mm
04:54 20.9 °C 16.5 °C 1008.6 hPa SSE 5.8 km/h 8 km/h 76% 0.0 mm
04:59 20.9 °C 16.5 °C 1008.6 hPa SSE 5.4 km/h 10 km/h 76% 0.0 mm
05:04 20.8 °C 16.4 °C 1008.6 hPa SSE 3.9 km/h 10 km/h 76% 0.0 mm
05:09 20.7 °C 16.3 °C 1008.4 hPa SSE 4.3 km/h 9.7 km/h 76% 0.0 mm
05:14 20.7 °C 16.3 °C 1008.4 hPa SSE 6.4 km/h 13 km/h 76% 0.0 mm
05:19 20.6 °C 16.4 °C 1008.4 hPa SSE 6.8 km/h 12.9 km/h 76.5% 0.0 mm
05:24 20.6 °C 16.4 °C 1008.3 hPa SSE 8.4 km/h 9.7 km/h 76.9% 0.0 mm
05:29 20.6 °C 16.3 °C 1008.3 hPa Sur 8 km/h 9.7 km/h 76.5% 0.0 mm
05:34 20.6 °C 16.2 °C 1008.3 hPa Sur 5.8 km/h 8 km/h 76% 0.0 mm
05:39 20.6 °C 16.4 °C 1008.3 hPa SSO 5.5 km/h 8 km/h 77% 0.0 mm
05:44 20.6 °C 16.4 °C 1008.3 hPa SSO 3.9 km/h 8 km/h 76.6% 0.0 mm
05:49 20.7 °C 16.3 °C 1008.3 hPa SSE 3.9 km/h 8 km/h 76% 0.0 mm
05:54 20.7 °C 16.3 °C 1008.1 hPa SSE 3.9 km/h 8 km/h 76% 0.0 mm
05:59 20.7 °C 16.3 °C 1008.1 hPa SE 3.9 km/h 7.6 km/h 76% 0.0 mm
06:04 20.4 °C 16.2 °C 1008.1 hPa SE 3.9 km/h 10 km/h 76.7% 0.0 mm
06:09 20.3 °C 16.1 °C 1007.9 hPa SE 4 km/h 9.7 km/h 77% 0.0 mm
06:14 20.2 °C 16.1 °C 1007.8 hPa SSE 5 km/h 8 km/h 77% 0.0 mm
06:19 20.2 °C 16.1 °C 1007.8 hPa SSE 4.6 km/h 5.8 km/h 77% 0.0 mm
06:24 20.3 °C 16.1 °C 1007.6 hPa OSO 2.3 km/h 6.4 km/h 77% 0.0 mm
06:29 20.3 °C 16.1 °C 1007.6 hPa ONO 2.4 km/h 5.6 km/h 77% 0.0 mm
06:34 20.3 °C 16.1 °C 1007.6 hPa ONO 2.9 km/h 4.8 km/h 77% 0.0 mm
06:39 20.3 °C 16.1 °C 1007.6 hPa ONO 2.8 km/h 3.9 km/h 77% 0.0 mm
06:44 20.3 °C 16 °C 1007.6 hPa NNE 2.2 km/h 7.4 km/h 76.4% 0.0 mm
06:49 20.3 °C 16 °C 1007.6 hPa ESE 2.4 km/h 8 km/h 76% 0.0 mm
06:54 20.3 °C 15.9 °C 1007.5 hPa SE 3.2 km/h 9.5 km/h 75.6% 0.0 mm
06:59 20.3 °C 15.7 °C 1007.5 hPa SE 3.8 km/h 11.9 km/h 75% 0.0 mm
07:04 20.2 °C 15.6 °C 1007.5 hPa SSE 6.4 km/h 11.3 km/h 75% 0.0 mm
07:09 20.2 °C 15.4 °C 1007.4 hPa SSE 6.5 km/h 11.9 km/h 73.9% 0.0 mm
07:14 20.2 °C 15.2 °C 1007.4 hPa SSE 6.9 km/h 11.3 km/h 73% 0.0 mm
07:19 20.3 °C 15.1 °C 1007.4 hPa Sur 6.9 km/h 11.3 km/h 72.2% 0.0 mm
07:24 20.3 °C 14.9 °C 1007.3 hPa Sur 6.9 km/h 10 km/h 71.2% 0.0 mm
07:29 20.4 °C 14.8 °C 1007.3 hPa Sur 6.9 km/h 9.7 km/h 70.3% 0.0 mm
07:34 20.5 °C 14.9 °C 1007.3 hPa Sur 6.5 km/h 9.7 km/h 70% 0.0 mm
07:39 20.6 °C 14.8 °C 1007.2 hPa SSE 6.2 km/h 10 km/h 69.4% 0.0 mm
07:44 20.6 °C 14.7 °C 1007.2 hPa Sur 5 km/h 9.7 km/h 69% 0.0 mm
07:49 20.6 °C 14.7 °C 1007.2 hPa Sur 4.8 km/h 8 km/h 69% 0.0 mm
07:54 20.7 °C 14.8 °C 1007.2 hPa SE 3.9 km/h 7.4 km/h 69% 0.0 mm
07:59 20.6 °C 14.5 °C 1007.2 hPa SE 3.7 km/h 8 km/h 68% 0.0 mm
08:04 20.6 °C 14.5 °C 1007.2 hPa SE 3.2 km/h 6.4 km/h 68% 0.0 mm
08:09 20.6 °C 14.5 °C 1007.1 hPa SE 3.2 km/h 5.8 km/h 68% 0.0 mm
08:14 20.8 °C 14.6 °C 1007.1 hPa SO 3.2 km/h 6.4 km/h 67.7% 0.0 mm
08:19 20.9 °C 14.6 °C 1007.1 hPa Oeste 3.2 km/h 7.4 km/h 67.1% 0.0 mm
08:24 21.1 °C 14.5 °C 1007.0 hPa Oeste 3.2 km/h 8 km/h 66.4% 0.0 mm
08:29 21.2 °C 14.3 °C 1007.0 hPa Oeste 3.2 km/h 8.4 km/h 64.7% 0.0 mm
08:34 21.4 °C 14.2 °C 1007.0 hPa Oeste 3.2 km/h 8 km/h 63.5% 0.0 mm
08:39 21.7 °C 14.7 °C 1007.0 hPa OSO 3.2 km/h 8 km/h 64.5% 0.0 mm
08:44 21.7 °C 14.6 °C 1007.0 hPa Este 3.2 km/h 8 km/h 64.1% 0.0 mm
08:49 21.7 °C 14.6 °C 1007.0 hPa Este 3.3 km/h 8 km/h 64% 0.0 mm
08:54 21.9 °C 14.8 °C 1007.0 hPa Este 3.9 km/h 8 km/h 64.2% 0.0 mm
08:59 22.2 °C 14.8 °C 1007.0 hPa Este 3.5 km/h 4.8 km/h 63.1% 0.0 mm
09:04 22.5 °C 14.7 °C 1007.2 hPa Este 2.2 km/h 5.6 km/h 61.2% 0.0 mm
09:09 22.9 °C 14.8 °C 1007.2 hPa NNE 2.4 km/h 10 km/h 60.5% 0.0 mm
09:14 23.1 °C 14.8 °C 1007.2 hPa NO 3.2 km/h 13 km/h 59.6% 0.0 mm
09:19 23.2 °C 14.5 °C 1007.3 hPa ONO 3.7 km/h 16.7 km/h 58.1% 0.0 mm
09:24 23.5 °C 13.8 °C 1007.3 hPa ONO 6.9 km/h 20.4 km/h 54.2% 0.0 mm
09:29 24.1 °C 13.7 °C 1007.3 hPa ONO 7.9 km/h 21.7 km/h 52.3% 0.0 mm
09:34 24.6 °C 13.5 °C 1007.4 hPa ONO 13 km/h 22.2 km/h 50.3% 0.0 mm
09:39 25 °C 13.3 °C 1007.4 hPa ONO 13.4 km/h 26.2 km/h 48.3% 0.0 mm
09:44 25.3 °C 13 °C 1007.4 hPa ONO 15.6 km/h 25.7 km/h 46.6% 0.0 mm
09:49 25.4 °C 12.7 °C 1007.6 hPa ONO 15.7 km/h 24.1 km/h 45.3% 0.0 mm
09:54 25.6 °C 12.9 °C 1007.6 hPa ONO 16.1 km/h 24.1 km/h 45.4% 0.0 mm
09:59 25.7 °C 12.9 °C 1007.6 hPa ONO 15.3 km/h 20.9 km/h 45% 0.0 mm
10:04 25.7 °C 12.8 °C 1007.9 hPa ONO 12.2 km/h 20.9 km/h 45% 0.0 mm
10:09 25.6 °C 12.8 °C 1007.9 hPa ONO 12.2 km/h 20.9 km/h 45.2% 0.0 mm
10:14 25.6 °C 12.8 °C 1007.9 hPa NO 12.2 km/h 27.8 km/h 45% 0.0 mm
10:19 25.5 °C 12.7 °C 1008.1 hPa ONO 12.4 km/h 27.4 km/h 45% 0.0 mm
10:24 25.3 °C 12.5 °C 1008.1 hPa ONO 13 km/h 22.5 km/h 45% 0.0 mm
10:29 25.3 °C 12.4 °C 1008.1 hPa ONO 12.9 km/h 22.2 km/h 44.7% 0.0 mm
10:34 25.3 °C 11.7 °C 1008.2 hPa ONO 12.2 km/h 28.2 km/h 42.6% 0.0 mm
10:39 25.4 °C 11 °C 1008.2 hPa ONO 13.2 km/h 29.8 km/h 40.6% 0.0 mm
10:44 25.7 °C 10.6 °C 1008.2 hPa ONO 18.3 km/h 31.7 km/h 38.8% 0.0 mm
10:49 25.7 °C 10 °C 1008.2 hPa ONO 18.3 km/h 34.6 km/h 37.3% 0.0 mm
10:54 25.7 °C 9.8 °C 1008.2 hPa ONO 18 km/h 35.4 km/h 36.7% 0.0 mm
10:59 25.9 °C 9.6 °C 1008.2 hPa ONO 18.1 km/h 32.2 km/h 35.7% 0.0 mm
11:04 26.3 °C 8.8 °C 1008.3 hPa ONO 18.4 km/h 41.2 km/h 33.2% 0.0 mm
11:09 26.6 °C 9 °C 1008.3 hPa ONO 18.9 km/h 41.8 km/h 33% 0.0 mm
11:14 26.6 °C 9.1 °C 1008.3 hPa NO 22 km/h 36.2 km/h 33.2% 0.0 mm
11:19 26.5 °C 9 °C 1008.4 hPa ONO 22.1 km/h 43.1 km/h 33.2% 0.0 mm
11:24 26.5 °C 9 °C 1008.4 hPa ONO 22.5 km/h 43.5 km/h 33.2% 0.0 mm
11:29 26.6 °C 9.1 °C 1008.4 hPa ONO 22.7 km/h 46.3 km/h 33.3% 0.0 mm
11:34 26.6 °C 9 °C 1008.4 hPa NO 23.3 km/h 46.7 km/h 33% 0.0 mm
11:39 26.7 °C 9.1 °C 1008.4 hPa NNO 23.1 km/h 38.6 km/h 33% 0.0 mm
11:44 26.7 °C 9.1 °C 1008.4 hPa NO 21.7 km/h 38.9 km/h 33% 0.0 mm
11:49 26.9 °C 8.8 °C 1008.4 hPa ONO 21.8 km/h 38.9 km/h 32.1% 0.0 mm
11:54 26.7 °C 8.7 °C 1008.4 hPa NO 22.1 km/h 38.6 km/h 32% 0.0 mm
11:59 26.5 °C 8.5 °C 1008.4 hPa NO 21.7 km/h 33.3 km/h 32.2% 0.0 mm
12:04 26.3 °C 8.5 °C 1008.4 hPa ONO 20.1 km/h 35.9 km/h 32.6% 0.0 mm
12:09 26.1 °C 8.5 °C 1008.4 hPa NO 20.3 km/h 42.3 km/h 32.9% 0.0 mm
12:14 26.2 °C 8.6 °C 1008.4 hPa ONO 20.9 km/h 42.6 km/h 33% 0.0 mm
12:19 26.3 °C 8.5 °C 1008.4 hPa ONO 21.3 km/h 42.6 km/h 32.4% 0.0 mm
12:24 26.5 °C 8.4 °C 1008.1 hPa ONO 23.3 km/h 46.3 km/h 31.8% 0.0 mm
12:29 26.6 °C 8.1 °C 1008.0 hPa ONO 24 km/h 50.1 km/h 31% 0.0 mm
12:34 26.6 °C 8.2 °C 1008.1 hPa NO 28.2 km/h 50.1 km/h 31.4% 0.0 mm
12:39 26.6 °C 8.2 °C 1008.1 hPa ONO 27.9 km/h 50.4 km/h 31.3% 0.0 mm
12:44 26.6 °C 8.1 °C 1008.1 hPa Oeste 26.2 km/h 49.9 km/h 31% 0.0 mm
12:49 26.6 °C 8.1 °C 1008.5 hPa Oeste 25.2 km/h 38.6 km/h 31.1% 0.0 mm
12:54 26.7 °C 8.1 °C 1008.5 hPa Oeste 19.8 km/h 33.8 km/h 31% 0.0 mm
12:59 26.8 °C 8.2 °C 1008.5 hPa Oeste 18.9 km/h 29 km/h 30.9% 0.0 mm
13:04 27 °C 7.9 °C 1008.5 hPa ONO 15.6 km/h 31.5 km/h 30.1% 0.0 mm
13:09 26.9 °C 7.8 °C 1008.4 hPa ONO 16 km/h 35.9 km/h 29.9% 0.0 mm
13:14 27 °C 7.8 °C 1008.4 hPa NO 18 km/h 35.4 km/h 29.8% 0.0 mm
13:19 26.9 °C 7.6 °C 1008.4 hPa Oeste 18.5 km/h 33.8 km/h 29.5% 0.0 mm
13:24 27 °C 7.5 °C 1008.3 hPa ONO 20.9 km/h 44.9 km/h 29% 0.0 mm
13:29 26.9 °C 7.1 °C 1008.3 hPa ONO 21.5 km/h 46.8 km/h 28.6% 0.0 mm
13:34 27 °C 7.1 °C 1008.3 hPa ONO 24.5 km/h 46.7 km/h 28.3% 0.0 mm
13:39 27.1 °C 7.4 °C 1008.1 hPa ONO 24.3 km/h 41.8 km/h 28.8% 0.0 mm
13:44 27.1 °C 7.2 °C 1008.1 hPa Oeste 23.3 km/h 48.1 km/h 28.4% 0.0 mm
13:49 27.1 °C 7.2 °C 1008.1 hPa ONO 23.8 km/h 50.4 km/h 28.5% 0.0 mm
13:54 27.3 °C 7.2 °C 1007.6 hPa ONO 26.2 km/h 57.9 km/h 28.1% 0.0 mm
13:59 27.5 °C 7.2 °C 1007.5 hPa ONO 27 km/h 57.9 km/h 27.8% 0.0 mm
14:04 27.3 °C 6.7 °C 1007.9 hPa ONO 29.8 km/h 51.8 km/h 27% 0.0 mm
14:09 27.4 °C 7 °C 1007.9 hPa ONO 29.1 km/h 51.5 km/h 27.6% 0.0 mm
14:14 27.6 °C 6.6 °C 1007.9 hPa NO 25.6 km/h 38.9 km/h 26.4% 0.0 mm
14:19 27.3 °C 6.3 °C 1008.0 hPa Oeste 25.5 km/h 46.3 km/h 26.2% 0.0 mm
14:24 27.3 °C 6.6 °C 1008.0 hPa Oeste 25.1 km/h 46.7 km/h 26.9% 0.0 mm
14:29 27.4 °C 6.7 °C 1008.0 hPa OSO 24.3 km/h 35.4 km/h 27% 0.0 mm
14:34 27.4 °C 6.7 °C 1008.1 hPa Oeste 20.1 km/h 37 km/h 26.9% 0.0 mm
14:39 27.3 °C 6.5 °C 1008.1 hPa ONO 20.7 km/h 44.4 km/h 26.8% 0.0 mm
14:44 27.2 °C 6.5 °C 1008.1 hPa ONO 23.3 km/h 45.1 km/h 26.9% 0.0 mm
14:49 27.2 °C 6.4 °C 1008.1 hPa Oeste 23.2 km/h 37 km/h 26.7% 0.0 mm
14:54 27.2 °C 5.5 °C 1007.9 hPa Oeste 22.5 km/h 44.9 km/h 25.1% 0.0 mm
14:59 27.3 °C 5.5 °C 1007.9 hPa ONO 22.7 km/h 45.1 km/h 25% 0.0 mm
15:04 27.5 °C 5.5 °C 1007.9 hPa Oeste 23.3 km/h 38.6 km/h 24.7% 0.0 mm
15:09 27.6 °C 5.2 °C 1007.9 hPa ONO 23.1 km/h 35.4 km/h 24% 0.0 mm
15:14 27.5 °C 4.8 °C 1007.9 hPa ONO 21.7 km/h 54.2 km/h 23.5% 0.0 mm
15:19 27.2 °C 4.7 °C 1007.9 hPa NO 22.5 km/h 54.7 km/h 23.7% 0.0 mm
15:24 27.2 °C 4.7 °C 1007.8 hPa NO 26.2 km/h 42.6 km/h 23.7% 0.0 mm
15:29 27.3 °C 5 °C 1007.8 hPa NO 25.8 km/h 40.2 km/h 24% 0.0 mm
15:34 27.4 °C 5 °C 1007.8 hPa NO 23.3 km/h 38.9 km/h 24% 0.0 mm
15:39 27.3 °C 4.9 °C 1007.7 hPa NO 23.2 km/h 38.6 km/h 24% 0.0 mm
15:44 27.2 °C 4.8 °C 1007.7 hPa ONO 22.5 km/h 36.2 km/h 23.8% 0.0 mm
15:49 27.4 °C 4.8 °C 1007.7 hPa NO 21.8 km/h 37 km/h 23.6% 0.0 mm
15:54 27.5 °C 4.6 °C 1007.6 hPa ONO 18.4 km/h 35.4 km/h 23.2% 0.0 mm
15:59 27.4 °C 4.5 °C 1007.6 hPa ONO 18.7 km/h 42.6 km/h 23.1% 0.0 mm
16:04 27.4 °C 4.9 °C 1007.6 hPa ONO 20.1 km/h 41.8 km/h 23.7% 0.0 mm
16:09 27.4 °C 4.5 °C 1007.5 hPa ONO 19.9 km/h 40.7 km/h 23% 0.0 mm
16:14 27.4 °C 3.5 °C 1007.5 hPa NO 19 km/h 46.8 km/h 21.7% 0.0 mm
16:19 27.5 °C 2.1 °C 1007.5 hPa ONO 20 km/h 48.4 km/h 19.4% 0.0 mm
16:24 27.6 °C 1.1 °C 1007.4 hPa NO 25.6 km/h 50.4 km/h 18% 0.0 mm
16:29 27.6 °C 0.8 °C 1007.4 hPa NO 25.5 km/h 49.9 km/h 17.6% 0.0 mm
16:34 27.7 °C 0.5 °C 1007.5 hPa NO 25.1 km/h 48.3 km/h 17% 0.0 mm
16:39 27.6 °C 0.4 °C 1007.5 hPa NO 25.3 km/h 45.1 km/h 17% 0.0 mm
16:44 27.7 °C -0.1 °C 1007.5 hPa NO 26.2 km/h 44.4 km/h 16.4% 0.0 mm
16:49 27.7 °C -0.6 °C 1007.5 hPa ONO 25.6 km/h 45.1 km/h 15.8% 0.0 mm
16:54 27.7 °C -2 °C 1007.4 hPa ONO 22.5 km/h 50.4 km/h 14.2% 0.0 mm
16:59 27.6 °C -1.4 °C 1007.4 hPa ONO 23.9 km/h 50.1 km/h 15% 0.0 mm
17:04 27.6 °C -0.7 °C 1007.5 hPa ONO 29.1 km/h 48.3 km/h 15.8% 0.0 mm
17:09 27.6 °C 0.2 °C 1007.5 hPa ONO 28.5 km/h 51.8 km/h 16.8% 0.0 mm
17:14 27.7 °C 0.3 °C 1007.5 hPa ONO 25.6 km/h 51.5 km/h 16.9% 0.0 mm
17:19 27.7 °C 0.4 °C 1007.6 hPa NO 25 km/h 42.6 km/h 17% 0.0 mm
17:24 27.7 °C 0.4 °C 1007.6 hPa NO 22.1 km/h 46.3 km/h 17% 0.0 mm
17:29 27.6 °C 0.2 °C 1007.6 hPa ONO 23 km/h 46.7 km/h 16.8% 0.0 mm
17:34 27.6 °C 0.4 °C 1007.7 hPa ONO 28.1 km/h 45.1 km/h 17.1% 0.0 mm
17:39 27.5 °C 0.8 °C 1007.7 hPa ONO 27.5 km/h 41.8 km/h 17.6% 0.0 mm
17:44 27.6 °C 0.8 °C 1007.7 hPa ONO 23.7 km/h 37 km/h 17.6% 0.0 mm
17:49 27.7 °C 1.2 °C 1007.7 hPa ONO 23.7 km/h 43.1 km/h 18% 0.0 mm
17:54 27.6 °C 1.1 °C 1007.7 hPa ONO 23.7 km/h 43.5 km/h 18% 0.0 mm
17:59 27.6 °C 1.1 °C 1007.7 hPa ONO 23.7 km/h 41.8 km/h 18% 0.0 mm
18:04 27.6 °C 1.1 °C 1007.7 hPa NO 23.7 km/h 40.7 km/h 18% 0.0 mm
18:09 27.6 °C 1.2 °C 1007.7 hPa ONO 23.1 km/h 40.2 km/h 18.1% 0.0 mm
18:14 27.7 °C 1.2 °C 1007.7 hPa ONO 20.1 km/h 46.3 km/h 18% 0.0 mm
18:19 27.7 °C 1.2 °C 1007.7 hPa ONO 20.9 km/h 46.7 km/h 18% 0.0 mm
18:24 27.7 °C 1.2 °C 1007.7 hPa NO 25.1 km/h 46.7 km/h 18% 0.0 mm
18:29 27.6 °C 1.1 °C 1007.7 hPa NO 24.7 km/h 40.2 km/h 18% 0.0 mm
18:34 27.6 °C 1.7 °C 1007.9 hPa ONO 22.5 km/h 37 km/h 18.7% 0.0 mm
18:39 27.6 °C 1.9 °C 1007.9 hPa ONO 22.2 km/h 44.4 km/h 19% 0.0 mm
18:44 27.6 °C 1.9 °C 1007.9 hPa ONO 20.1 km/h 45.1 km/h 19% 0.0 mm
18:49 27.5 °C 1.7 °C 1008.1 hPa ONO 20.4 km/h 34.3 km/h 18.8% 0.0 mm
18:54 27.4 °C 1.7 °C 1008.1 hPa ONO 22.1 km/h 48.1 km/h 19% 0.0 mm
18:59 27.3 °C 1.7 °C 1008.1 hPa ONO 22.8 km/h 48.4 km/h 19% 0.0 mm
19:04 27.2 °C 1.5 °C 1008.2 hPa ONO 25.6 km/h 51.8 km/h 19% 0.0 mm
19:09 27.1 °C 1.5 °C 1008.2 hPa NO 25.9 km/h 51.5 km/h 19% 0.0 mm
19:14 27.1 °C 1.5 °C 1008.2 hPa NO 27.4 km/h 48.4 km/h 19% 0.0 mm
19:19 26.9 °C 1.8 °C 1008.3 hPa ONO 27.1 km/h 48.3 km/h 19.6% 0.0 mm
19:24 26.9 °C 2 °C 1008.3 hPa ONO 25.6 km/h 41.8 km/h 20% 0.0 mm
19:29 26.8 °C 1.9 °C 1008.3 hPa ONO 25.6 km/h 51.8 km/h 20% 0.0 mm
19:34 26.7 °C 1.9 °C 1008.6 hPa ONO 25.6 km/h 51.5 km/h 20% 0.0 mm
19:39 26.6 °C 1.8 °C 1008.6 hPa ONO 25.6 km/h 51.8 km/h 20% 0.0 mm
19:44 26.5 °C 1.5 °C 1008.6 hPa ONO 25.6 km/h 50.1 km/h 19.7% 0.0 mm
19:49 26.3 °C 1.6 °C 1008.8 hPa ONO 26 km/h 48.3 km/h 20% 0.0 mm
19:54 26.3 °C 1.5 °C 1008.8 hPa ONO 28.2 km/h 53.8 km/h 20% 0.0 mm
19:59 26.2 °C 1.8 °C 1008.8 hPa NO 28 km/h 53.1 km/h 20.5% 0.0 mm
20:04 26.1 °C 2 °C 1009.2 hPa NO 27.4 km/h 40.7 km/h 21% 0.0 mm
20:09 25.9 °C 1.9 °C 1009.2 hPa NO 26.3 km/h 40.2 km/h 21% 0.0 mm
20:14 25.8 °C 2 °C 1009.2 hPa NO 20.9 km/h 38.6 km/h 21.4% 0.0 mm
20:19 25.7 °C 2.4 °C 1009.5 hPa NO 20.5 km/h 33.8 km/h 22% 0.0 mm
20:24 25.6 °C 2.3 °C 1009.5 hPa NO 18.4 km/h 34.3 km/h 22% 0.0 mm
20:29 25.6 °C 2.3 °C 1009.5 hPa NO 18.4 km/h 35.9 km/h 22% 0.0 mm
20:34 25.5 °C 2.2 °C 1009.8 hPa NO 18.4 km/h 39.6 km/h 22% 0.0 mm
20:39 25.4 °C 2.1 °C 1009.8 hPa NO 18.8 km/h 40.2 km/h 22% 0.0 mm
20:44 25.4 °C 2.1 °C 1009.8 hPa NO 20.9 km/h 33.8 km/h 22% 0.0 mm
20:49 25.3 °C 2.1 °C 1010.0 hPa NO 20.5 km/h 32.2 km/h 22% 0.0 mm
20:54 25.2 °C 2 °C 1010.0 hPa ONO 18 km/h 32.2 km/h 22% 0.0 mm
20:59 25.2 °C 1.9 °C 1010.0 hPa NO 17.7 km/h 34.3 km/h 22% 0.0 mm
21:04 25.1 °C 2.4 °C 1010.2 hPa ONO 16.4 km/h 33.8 km/h 22.9% 0.0 mm
21:09 25 °C 2.4 °C 1010.2 hPa NO 17 km/h 50.4 km/h 23% 0.0 mm
21:14 24.9 °C 2.3 °C 1010.2 hPa ONO 20.1 km/h 49.9 km/h 23% 0.0 mm
21:19 24.8 °C 2.2 °C 1010.5 hPa NO 20.3 km/h 37 km/h 23% 0.0 mm
21:24 24.8 °C 2.4 °C 1010.5 hPa NO 20.9 km/h 35.9 km/h 23.3% 0.0 mm
21:29 24.8 °C 2.8 °C 1010.5 hPa ONO 20.8 km/h 35.4 km/h 24% 0.0 mm
21:34 24.8 °C 2.8 °C 1010.7 hPa ONO 20.1 km/h 35.4 km/h 24% 0.0 mm
21:39 24.7 °C 2.8 °C 1010.7 hPa NO 19.8 km/h 32.2 km/h 24% 0.0 mm
21:44 24.7 °C 3 °C 1010.7 hPa NO 18 km/h 35.2 km/h 24.4% 0.0 mm
21:49 24.7 °C 3.3 °C 1010.9 hPa NO 17.8 km/h 35.4 km/h 25% 0.0 mm
21:54 24.6 °C 3.3 °C 1010.9 hPa NO 16.4 km/h 27.8 km/h 25% 0.0 mm
21:59 24.4 °C 3.1 °C 1010.9 hPa NO 16.1 km/h 29.6 km/h 25% 0.0 mm
22:04 24.4 °C 3.1 °C 1011.1 hPa NO 14.8 km/h 37.8 km/h 25% 0.0 mm
22:09 24.4 °C 3.1 °C 1011.1 hPa NO 15.7 km/h 37 km/h 25% 0.0 mm
22:14 24.3 °C 3.6 °C 1011.1 hPa ONO 20.9 km/h 35.4 km/h 26% 0.0 mm
22:19 24.2 °C 3.5 °C 1011.3 hPa NO 20.3 km/h 29.8 km/h 26% 0.0 mm
22:24 23.9 °C 3.8 °C 1011.3 hPa NO 17.2 km/h 30.6 km/h 27.1% 0.0 mm
22:29 23.4 °C 4.1 °C 1011.3 hPa NO 16.8 km/h 29.6 km/h 28.5% 0.0 mm
22:34 23.1 °C 4.3 °C 1011.3 hPa NO 14.8 km/h 27.4 km/h 29.4% 0.0 mm
22:39 22.8 °C 4.3 °C 1011.3 hPa NO 14.2 km/h 20.4 km/h 30% 0.0 mm
22:44 22.6 °C 4.2 °C 1011.3 hPa NO 11.1 km/h 20.9 km/h 30.1% 0.0 mm
22:49 22.4 °C 4.5 °C 1011.3 hPa NNO 11.4 km/h 25.9 km/h 31% 0.0 mm
22:54 22.3 °C 4.4 °C 1011.2 hPa NO 13 km/h 25.7 km/h 31% 0.0 mm
22:59 22.3 °C 4.3 °C 1011.2 hPa NO 13.2 km/h 25.9 km/h 31% 0.0 mm
23:04 22.2 °C 4.6 °C 1011.3 hPa NO 13.7 km/h 27.8 km/h 31.7% 0.0 mm
23:09 22.1 °C 4.6 °C 1011.3 hPa NNO 13.7 km/h 27.4 km/h 32% 0.0 mm
23:14 22.1 °C 4.6 °C 1011.3 hPa NO 13.7 km/h 22.2 km/h 32% 0.0 mm
23:19 21.9 °C 4.5 °C 1011.7 hPa NO 13.4 km/h 22.5 km/h 32% 0.0 mm
23:24 21.9 °C 4.4 °C 1011.7 hPa NO 11.9 km/h 19.3 km/h 32% 0.0 mm
23:29 21.8 °C 4.6 °C 1011.7 hPa NO 11.6 km/h 19.3 km/h 32.6% 0.0 mm
23:34 21.8 °C 4.8 °C 1012.2 hPa NO 10 km/h 19.3 km/h 33% 0.0 mm
23:39 21.7 °C 4.7 °C 1012.2 hPa NO 10 km/h 20.4 km/h 33% 0.0 mm
23:44 21.7 °C 4.7 °C 1012.2 hPa NO 10 km/h 20.9 km/h 33% 0.0 mm
23:49 21.7 °C 4.7 °C 1012.7 hPa NO 9.6 km/h 16.1 km/h 33% 0.0 mm
23:54 21.6 °C 4.8 °C 1012.7 hPa NO 7.6 km/h 14.8 km/h 33.4% 0.0 mm
23:59 21.6 °C 5 °C 1012.7 hPa ONO 7.8 km/h 19.8 km/h 33.9% 0.0 mm
Murcia-Puente Tocinos, España
Compliments of Weather Underground - 3 mb

La estación de MeteoMurcia.com, publica sus datos en los siguientes proyectos:

Weather Underground PWS IMURCIAP2 Meteoclimatic www.awekas.at

W3Counter
Web Analytics